Tiempo atmosférico en la estación meteorológica de Taramundi, Ouria, Asturias (335 m.)



Fecha
DESCASC
Temp. máxima en grados centígrados (hora)
DESCASC
Temp. mínima en grados centígrados (hora)
DESCASC
Temp. media en grados centígrados
DESCASC
Racha de viento máxima en m/sg (hora)
DESCASC
Velocidad máxima media en intervalos de 10 minutos(hora)
DESCASC
Precipitaciones diarias en mm
DESCASC
Precipitaciones de 00:00 a 06:00 en mm
DESCASC
Precipitaciones de 06:00 a 12:00 en mm
DESCASC
Precipitaciones de 12:00 a 18:00 en mm
DESCASC
Precipitaciones de 18:00 a 24:00 en mm
DESCASC
16-06-2019 18.5 (15:50) 8.2 (07:40) 13.3 8.61 (17:10) 6.39 (16:30) 0 0 0 0 0
15-06-2019 18.1 (15:50) 10.3 (00:00) 14.2 12.5 (14:10) 7.5 (12:20) 0 0 0 0 0
14-06-2019 16.9 (14:10) 6.6 (05:20) 11.7 7.78 (16:30) 5.83 (17:00) 0 0 0 0 0
13-06-2019 15 (16:10) 7.4 (00:00) 11.2 7.5 (18:00) 5.83 (19:00) 0 0 0 0 0
12-06-2019 15.1 (14:50) 7.2 (00:00) 11.2 8.89 (16:30) 6.11 (15:00) 2.8 2.6 0.2 0 0
11-06-2019 13.8 (13:50) 8.6 (00:00) 11.2 9.17 (12:30) 6.67 (14:50) 5 4.6 0.2 0.2 0
10-06-2019 15.2 (14:50) 9.3 (00:00) 12.3 8.89 (16:20) 6.39 (16:20) 0 0 0 0 0
09-06-2019 12.6 (20:10) 9.6 (00:00) 11.1 8.33 (10:40) 5.83 (10:40) 1.8 0 0.2 1.6 0
08-06-2019 14.8 (14:40) 6.4 (00:00) 10.6 10 (16:10) 6.94 (16:10) 0 0 0 0 0
07-06-2019 15.7 (14:20) 7.8 (00:00) 11.8 17.5 (00:20) 11.39 (01:30) 4.6 3 1 0.6 0
06-06-2019 14.8 (14:10) 7.3 (00:00) 11.1 24.44 (19:00) 14.17 (20:00) 4.2 0 0 4 0.2
05-06-2019 13.6 (16:30) 8.7 (00:00) 11.2 10.56 (15:10) 6.11 (20:40) 13.4 0 2.8 10.4 0.2
04-06-2019 18.4 (15:00) 10.8 (00:00) 14.6 20.28 (05:40) 12.78 (07:40) 1.6 0 1.2 0 0.4
03-06-2019 16 (14:30) 13.9 (00:00) 14.9 4.72 (10:20) 3.61 (10:20) 2.4 0 1.4 0.6 0.4
02-06-2019 24 (13:20) 15.2 (00:00) 19.6 9.17 (11:50) 5.56 (11:50) 0 0 0 0 0
01-06-2019 28.8 (13:20) 16.7 (00:00) 22.8 8.33 (17:00) 6.94 (17:00) 0 0 0 0 0
31-05-2019 29.4 (14:30) 13.5 (00:00) 21.4 5.56 (15:40) 4.72 (16:10) 0 0 0 0 0
30-05-2019 24 (16:10) 9.9 (00:00) 16.9 5.56 (14:50) 4.72 (17:10) 0 0 0 0 0
29-05-2019 18 (16:50) 8.2 (00:00) 13.1 8.89 (14:40) 7.22 (17:50) 0 0 0 0 0
28-05-2019 15.5 (15:50) 9.2 (00:00) 12.3 9.17 (14:20) 6.67 (19:10) 0 0 0 0 0
27-05-2019 14 (16:50) 10.8 (00:00) 12.4 8.33 (17:20) 6.11 (17:10) 2.6 0 2.4 0.2 0
26-05-2019 17 (16:30) 8.9 (00:00) 12.9 8.61 (18:10) 6.67 (18:10) 0 0 0 0 0
25-05-2019 16.1 (16:00) 9.7 (00:00) 12.9 10.56 (15:00) 7.78 (15:10) 0.2 0 0.2 0 0
24-05-2019 15.1 (17:00) 10 (00:00) 12.6 9.17 (17:40) 7.22 (17:20) 0.4 0 0 0.4 0
23-05-2019 19.1 (15:00) 10.4 (00:00) 14.8 8.61 (14:50) 6.11 (20:00) 0 0 0 0 0
22-05-2019 19.5 (13:00) 8.8 (00:00) 14.2 7.78 (17:30) 5.56 (16:30) 0 0 0 0 0

Gráficas

Temp. máximas Temp. mínimas Temp. medias Precipitaciones Rachas de viento máximas Velocidades máximas media en intervalos de 10 minutos

Datos horarios

Fecha y hora oficial Temperatura (ºC) Velocidad del viento (km/h) Dirección del viento Racha (km/h) Dirección de racha Precipitación (mm) Presión (hPa) Tendencia (hPa) Humedad (%)
2019-06-20 23:00:00 12.8 9 Norte 16 Norte 0 -- -- 100
2019-06-20 22:00:00 13 13 Norte 24 Norte 0 -- -- 100
2019-06-20 21:00:00 13.2 15 Norte 21 Norte 0 -- -- 100
2019-06-20 20:00:00 13.6 15 Norte 23 Norte 0 -- -- 100
2019-06-20 19:00:00 13.7 15 Norte 25 Norte 0 -- -- 100
2019-06-20 18:00:00 13.5 18 Norte 29 Norte 0 -- -- 100
2019-06-20 17:00:00 13.7 19 Norte 29 Norte 0 -- -- 100
2019-06-20 16:00:00 13.8 16 Norte 26 Norte 0 -- -- 100
2019-06-20 15:00:00 13.7 17 Norte 22 Norte 0.2 -- -- 100
2019-06-20 14:00:00 13.4 13 Norte 25 Norte 0.2 -- -- 100
2019-06-20 13:00:00 13.1 18 Norte 25 Norte 1 -- -- 100
2019-06-20 12:00:00 13.5 16 Norte 22 Norte 2 -- -- 100
2019-06-20 11:00:00 13.1 15 Norte 22 Norte 0.4 -- -- 100
2019-06-20 10:00:00 13.4 13 Norte 20 Norte 0 -- -- 100
2019-06-20 09:00:00 13.2 10 Norte 13 Norte 0.4 -- -- 100
2019-06-20 08:00:00 12.9 10 Norte 20 Norte 0.2 -- -- 100
2019-06-20 07:00:00 13.2 9 Norte 12 Norte 0.2 -- -- 100
2019-06-20 06:00:00 13.2 10 Norte 13 Norte 1 -- -- 100
2019-06-20 05:00:00 13.2 6 Norte 8 Norte 0.2 -- -- 100
2019-06-20 04:00:00 13.2 6 Norte 7 Norte 0 -- -- 100
2019-06-20 03:00:00 13.3 3 Sur 4 Sur 0 -- -- 100
2019-06-20 02:00:00 13.3 0 Calma 6 Noroeste 0 -- -- 100
2019-06-20 01:00:00 13.3 5 Noroeste 10 Noroeste 0.2 -- -- 100
2019-06-20 00:00:00 13.4 4 Norte 8 Norte 0.2 -- -- 100
2019-06-19 23:00:00 13.5 4 Norte 8 Noroeste 0.2 -- -- 100
2019-06-19 22:00:00 13.6 6 Norte 9 Nordeste 0.2 -- -- 100
2019-06-19 21:00:00 13.7 7 Norte 13 Norte 0.4 -- -- 100
2019-06-19 20:00:00 13.9 9 Norte 12 Norte 0 -- -- 100
2019-06-19 19:00:00 13.7 8 Norte 17 Norte 0.4 -- -- 100
2019-06-19 18:00:00 13.8 15 Norte 20 Norte 1.2 -- -- 100
2019-06-19 17:00:00 14.4 11 Norte 18 Norte 0.4 -- -- 100
2019-06-19 16:00:00 15.5 13 Norte 15 Norte 0 -- -- 98
2019-06-19 15:00:00 16 7 Norte -- -- -- -- -- 96
2019-06-19 14:00:00 -- -- -- -- -- -- -- -- --
2019-06-19 13:00:00 -- -- -- -- -- -- -- -- --
2019-06-19 12:00:00 -- -- -- -- -- -- -- -- --
2019-06-19 11:00:00 -- -- -- -- -- -- -- -- --
2019-06-19 10:00:00 -- -- -- -- -- -- -- -- --
2019-06-19 09:00:00 -- -- -- -- -- -- -- -- --
2019-06-19 08:00:00 -- -- -- -- -- -- -- -- --
2019-06-19 07:00:00 -- -- -- -- -- -- -- -- --
2019-06-19 06:00:00 -- -- -- -- -- -- -- -- --
2019-06-19 05:00:00 -- -- -- -- -- -- -- -- --
2019-06-19 04:00:00 -- -- -- -- -- -- -- -- --
2019-06-19 03:00:00 -- -- -- -- -- -- -- -- --
2019-06-19 02:00:00 -- -- -- -- -- -- -- -- --
2019-06-19 01:00:00 -- -- -- -- -- -- -- -- --
2019-06-19 00:00:00 -- -- -- -- -- -- -- -- --
2019-06-18 23:00:00 -- -- -- -- -- -- -- -- --
2019-06-18 22:00:00 -- -- -- -- -- -- -- -- --
2019-06-18 21:00:00 -- -- -- -- -- -- -- -- --
2019-06-18 20:00:00 -- -- -- -- -- -- -- -- --
2019-06-18 19:00:00 15.7 6 Norte 14 Norte 0.2 -- -- 99
2019-06-18 18:00:00 16.7 11 Norte 26 Sur 0.2 -- -- 94
2019-06-18 17:00:00 21 13 Sur 34 Sur 0.2 -- -- 66
2019-06-18 16:00:00 23.4 17 Sur 41 Sur 0 -- -- 56
2019-06-18 15:00:00 21 9 Sur 26 Sur 0 -- -- 70
2019-06-18 14:00:00 17.8 6 Norte 14 Norte 0 -- -- 91
2019-06-18 13:00:00 18.7 6 Norte 14 Noroeste 0 -- -- 89
2019-06-18 12:00:00 17.7 8 Norte 21 Sur 0.4 -- -- 93
2019-06-18 11:00:00 15.7 10 Sur 18 Sur 0 -- -- 95
2019-06-18 10:00:00 14.3 9 Sur 17 Sur 0 -- -- 99
2019-06-18 09:00:00 13.4 9 Sur 23 Sur 0 -- -- 100
2019-06-18 08:00:00 12.1 13 Sur 16 Sur 0 -- -- 100
2019-06-18 07:00:00 11.8 9 Sur 15 Sur 0 -- -- 100
2019-06-18 06:00:00 12.5 12 Sur 22 Sur 0 -- -- 100
2019-06-18 05:00:00 13.1 13 Sur 19 Sur 0 -- -- 100
2019-06-18 04:00:00 13.3 4 Sur 8 Sur 0 -- -- 100
2019-06-18 03:00:00 13.3 3 Sur 7 Sur 0 -- -- 100
2019-06-18 02:00:00 13.4 4 Sur 6 Sur 0 -- -- 100
2019-06-18 01:00:00 13.5 2 Sur 7 Sur 0 -- -- 100
2019-06-18 00:00:00 13.4 4 Noroeste 8 Sur 0 -- -- 100
2019-06-17 23:00:00 13.7 0 Calma 6 Norte 0 -- -- 100
2019-06-17 22:00:00 14 9 Norte 12 Norte 0 -- -- 99
2019-06-17 21:00:00 14.5 2 Norte 9 Norte 0 -- -- 97
2019-06-17 20:00:00 14.6 8 Norte 14 Norte 0 -- -- 97
2019-06-17 19:00:00 15 12 Norte 19 Norte 0 -- -- 96
2019-06-17 18:00:00 16.2 9 Norte 14 Norte 0 -- -- 93
2019-06-17 17:00:00 15.9 10 Norte 20 Norte 0 -- -- 93
2019-06-17 16:00:00 16.6 15 Norte 20 Norte 0 -- -- 90
2019-06-17 15:00:00 17.7 6 Norte 14 Norte 0 -- -- 86
2019-06-17 14:00:00 16.1 6 Norte 10 Norte 0 -- -- 91
2019-06-17 13:00:00 15.4 5 Norte 9 Norte 0 -- -- 93
2019-06-17 12:00:00 14.6 8 Norte 11 Norte 0 -- -- 95
2019-06-17 11:00:00 14.2 7 Norte 9 Norte 0 -- -- 98
2019-06-17 10:00:00 13.4 5 Norte 9 Norte 0 -- -- 100
2019-06-17 09:00:00 13 7 Norte 13 Norte 0 -- -- 100
2019-06-17 08:00:00 12.9 10 Norte 14 Norte 0 -- -- 100
2019-06-17 07:00:00 13.2 3 Norte 6 Nordeste 0 -- -- 100
2019-06-17 06:00:00 13.2 0 Calma 3 Nordeste 0 -- -- 100
2019-06-17 05:00:00 13.2 3 Norte 8 Norte 0 -- -- 100
2019-06-17 04:00:00 13.3 6 Norte 9 Norte 0 -- -- 100
2019-06-17 03:00:00 13.4 6 Norte 10 Norte 0 -- -- 100
2019-06-17 02:00:00 13.4 6 Norte 11 Norte 0 -- -- 100
2019-06-17 01:00:00 13.4 7 Norte 13 Norte 0 -- -- 100
2019-06-17 00:00:00 13.5 10 Norte 14 Norte 0 -- -- 100
2019-06-16 23:00:00 13.5 8 Norte 14 Norte 0 -- -- 100
2019-06-16 22:00:00 13.6 12 Norte 18 Norte 0 -- -- 98
2019-06-16 21:00:00 13.8 14 Norte 24 Norte 0 -- -- 97
2019-06-16 20:00:00 14.1 16 Norte 27 Norte 0 -- -- 95
2019-06-16 19:00:00 15.1 18 Norte 28 Norte 0 -- -- 92
2019-06-16 18:00:00 16.6 18 Norte 31 Norte 0 -- -- 87
2019-06-16 17:00:00 18 22 Norte 31 Norte 0 -- -- 82
2019-06-16 16:00:00 18.5 21 Norte 29 Norte 0 -- -- 82
2019-06-16 15:00:00 17.4 18 Norte 26 Norte 0 -- -- 84
2019-06-16 14:00:00 17.7 20 Norte 25 Norte 0 -- -- 85
2019-06-16 13:00:00 17.4 15 Norte 21 Norte 0 -- -- 83
2019-06-16 12:00:00 16.8 11 Norte 16 Norte 0 -- -- 83
2019-06-16 11:00:00 15.9 6 Norte 10 Sur 0 -- -- 85
2019-06-16 10:00:00 13.6 3 Sur 7 Sur 0 -- -- 88
2019-06-16 09:00:00 11 4 Sur 8 Sur 0 -- -- 100
2019-06-16 08:00:00 8.3 5 Sur 8 Sudoeste 0 -- -- 100
2019-06-16 07:00:00 8.3 6 Sur 9 Sur 0 -- -- 100
2019-06-16 06:00:00 8.6 4 Sur 7 Sur 0 -- -- 100
2019-06-16 05:00:00 8.7 4 Sur 5 Sur 0 -- -- 100
2019-06-16 04:00:00 9.2 3 Sur 5 Sudoeste 0 -- -- 100
2019-06-16 03:00:00 9.4 3 Sur 5 Sudoeste 0 -- -- 100
2019-06-16 02:00:00 9.8 -- -- -- -- 0 -- -- 99
2019-06-16 01:00:00 10.2 2 Sur 3 Sur 0 -- -- 97
2019-06-16 00:00:00 10.9 0 Calma 15 Norte 0 -- -- 95
2019-06-15 23:00:00 11.9 9 Norte 22 Noroeste 0 -- -- 92
2019-06-15 22:00:00 13.3 15 Norte 25 Norte 0 -- -- 88
2019-06-15 21:00:00 14.6 18 Norte 27 Norte 0 -- -- 84
2019-06-15 20:00:00 16.5 20 Norte 27 Norte 0 -- -- 80
2019-06-15 19:00:00 16.7 15 Norte 21 Norte 0 -- -- 80
2019-06-15 18:00:00 17.7 7 Norte 15 Norte 0 -- -- 76
2019-06-15 17:00:00 17.3 11 Sudeste 27 Sur 0 -- -- 61
2019-06-15 16:00:00 18 7 Sudeste 39 Sur 0 -- -- 60
2019-06-15 15:00:00 17 18 Sur 45 Sur 0 -- -- 62
2019-06-15 14:00:00 16.5 23 Sur 38 Sur 0 -- -- 64
2019-06-15 13:00:00 16.4 24 Sur 40 Sur 0 -- -- 65
2019-06-15 12:00:00 15.2 18 Sur 31 Sur 0 -- -- 69
2019-06-15 11:00:00 14.3 12 Sur 27 Sur 0 -- -- 74
2019-06-15 10:00:00 13.7 18 Sur 33 Sur 0 -- -- 78
2019-06-15 09:00:00 12.4 14 Sur 27 Sur 0 -- -- 85
2019-06-15 08:00:00 11.6 10 Sur 16 Sur 0 -- -- 91
2019-06-15 07:00:00 11.4 8 Sur 17 Sur 0 -- -- 93
2019-06-15 06:00:00 11.4 9 Sur 18 Sur 0 -- -- 94
2019-06-15 05:00:00 11.5 8 Sur 24 Sur 0 -- -- 94
2019-06-15 04:00:00 11.1 6 Sur 15 Sur 0 -- -- 94
2019-06-15 03:00:00 11.1 4 Sudoeste 10 Sur 0 -- -- 94
2019-06-15 02:00:00 10.9 6 Sudoeste 14 Sur 0 -- -- 95
2019-06-15 01:00:00 10.6 5 Sur 13 Sudeste 0 -- -- 98
2019-06-15 00:00:00 10.3 8 Sur 10 Sur 0 -- -- 98
2019-06-14 23:00:00 10.5 4 Sur 5 Sur 0 -- -- 95
2019-06-14 22:00:00 12.1 6 Norte 10 Norte 0 -- -- 93
2019-06-14 21:00:00 12.5 6 Norte 17 Norte 0 -- -- 90
2019-06-14 20:00:00 12.6 13 Norte 24 Norte 0 -- -- 85
2019-06-14 19:00:00 13.4 18 Norte 26 Norte 0 -- -- 81
2019-06-14 18:00:00 15.4 20 Norte 26 Norte 0 -- -- 75
2019-06-14 17:00:00 16 21 Norte 28 Norte 0 -- -- 76
2019-06-14 16:00:00 16.4 17 Norte 26 Norte 0 -- -- 81
2019-06-14 15:00:00 15.3 14 Norte 21 Norte 0 -- -- 79
2019-06-14 14:00:00 16.3 17 Norte 24 Norte 0 -- -- 78
2019-06-14 13:00:00 16 14 Norte 24 Norte 0 -- -- 82
2019-06-14 12:00:00 14.6 9 Norte 13 Noroeste 0 -- -- 86
2019-06-14 11:00:00 12.7 5 Norte 9 Noroeste 0 -- -- 91
2019-06-14 10:00:00 10.2 4 Sur 8 Sur 0 -- -- 99
2019-06-14 09:00:00 8.7 5 Sur 13 Sur 0 -- -- 100
2019-06-14 08:00:00 8.2 8 Sur 13 Sur 0 -- -- 100
2019-06-14 07:00:00 7.9 4 Sur 10 Sur 0 -- -- 100
2019-06-14 06:00:00 7.3 5 Sur 7 Sur 0 -- -- 100
2019-06-14 05:00:00 6.8 4 Sur 6 Sudoeste 0 -- -- 100
2019-06-14 04:00:00 7.3 2 Sur 6 Sur 0 -- -- 100
2019-06-14 03:00:00 7.4 4 Sur 6 Sur 0 -- -- 100
2019-06-14 02:00:00 7.5 4 Sur 7 Sur 0 -- -- 100
2019-06-14 01:00:00 8 4 Sur 6 Sur 0 -- -- 100
2019-06-14 00:00:00 8.5 4 Sur 5 Sur 0 -- -- 100
2019-06-13 23:00:00 9.2 0 Calma 6 Noroeste 0 -- -- 98
2019-06-13 22:00:00 10.3 5 Noroeste 15 Norte 0 -- -- 95
2019-06-13 21:00:00 11.5 11 Norte 22 Norte 0 -- -- 93
2019-06-13 20:00:00 12.2 17 Norte 26 Norte 0 -- -- 89
2019-06-13 19:00:00 13.9 21 Norte 27 Noroeste 0 -- -- 83
2019-06-13 18:00:00 13.4 17 Norte 27 Norte 0 -- -- 87
2019-06-13 17:00:00 13.7 21 Norte 27 Norte 0 -- -- 87
2019-06-13 16:00:00 14.8 16 Norte 25 Norte 0 -- -- 88
2019-06-13 15:00:00 14 17 Norte 26 Norte 0 -- -- 86
2019-06-13 14:00:00 11.8 19 Norte 27 Norte 0 -- -- 94
2019-06-13 13:00:00 12.5 17 Norte 26 Norte 0 -- -- 91
2019-06-13 12:00:00 13.6 12 Norte 21 Norte 0 -- -- 86
2019-06-13 11:00:00 12.4 4 Sur 8 Sur 0 -- -- 90
2019-06-13 10:00:00 11.1 7 Sur 9 Sur 0 -- -- 98
2019-06-13 09:00:00 9.7 3 Sur 5 Sur 0 -- -- 100
2019-06-13 08:00:00 9 0 Calma 4 Sur 0 -- -- 100
2019-06-13 07:00:00 8 3 Sur 5 Sur 0 -- -- 100
2019-06-13 06:00:00 7.7 2 Sur 9 Sur 0 -- -- 100
2019-06-13 05:00:00 7.4 5 Sur 6 Sur 0 -- -- 100
2019-06-13 04:00:00 8 2 Sur 4 Sudeste 0 -- -- 100
2019-06-13 03:00:00 8.6 0 Calma 4 Sudeste 0 -- -- 100
2019-06-13 02:00:00 8.2 0 Calma 2 Nordeste 0 -- -- 100
2019-06-13 01:00:00 8.8 0 Calma 4 Oeste 0 -- -- 100
2019-06-13 00:00:00 9.6 3 Norte 5 Noroeste 0 -- -- 100
2019-06-12 23:00:00 9.7 5 Norte 8 Noroeste 0 -- -- 99
2019-06-12 22:00:00 9.8 5 Norte 13 Norte 0 -- -- 97
2019-06-12 21:00:00 11.1 12 Norte 18 Norte 0 -- -- 92
2019-06-12 20:00:00 12.4 10 Norte 17 Norte 0 -- -- 87
2019-06-12 19:00:00 12 11 Norte 21 Norte 0 -- -- 85
2019-06-12 18:00:00 12.1 14 Norte 26 Norte 0 -- -- 84
2019-06-12 17:00:00 12.7 21 Norte 32 Norte 0 -- -- 82
2019-06-12 16:00:00 14.6 16 Norte 27 Norte 0 -- -- 79
2019-06-12 15:00:00 13.8 22 Norte 28 Norte 0 -- -- 78
2019-06-12 14:00:00 13.1 11 Norte 21 Norte 0 -- -- 82
2019-06-12 13:00:00 14.6 6 Norte 13 Sur 0 -- -- 76
2019-06-12 12:00:00 14.3 6 Sur 17 Sur 0 -- -- 72
2019-06-12 11:00:00 11.5 6 Sur 17 Sur 0 -- -- 81
2019-06-12 10:00:00 11.3 10 Sur 17 Sur 0 -- -- 91
2019-06-12 09:00:00 9.6 9 Sur 13 Sur 0 -- -- 100
2019-06-12 08:00:00 7.6 6 Sur 11 Sur 0.2 -- -- 100
2019-06-12 07:00:00 7.2 6 Sur 12 Sur 0 -- -- 100
2019-06-12 06:00:00 8.1 4 Sur 9 Sur 0 -- -- 100
2019-06-12 05:00:00 8.6 6 Sur 10 Sur 1 -- -- 100
2019-06-12 04:00:00 8.8 4 Sur 10 Sur 0.6 -- -- 100
2019-06-12 03:00:00 8.6 6 Sur 11 Sudeste 1 -- -- 100
2019-06-12 02:00:00 8.6 4 Sur 8 Sudeste 0 -- -- 98
2019-06-12 01:00:00 9.4 2 Sur 7 Sur 0 -- -- 95
2019-06-12 00:00:00 10 4 Sudeste 10 Norte 0 -- -- 94
2019-06-11 23:00:00 10.5 2 Sudoeste 12 Norte 0 -- -- 94
2019-06-11 22:00:00 11.2 3 Norte 21 Nordeste 0 -- -- 93
2019-06-11 21:00:00 12.1 8 Norte 26 Nordeste 0 -- -- 85
2019-06-11 20:00:00 12.2 16 Norte 30 Norte 0 -- -- 86
2019-06-11 19:00:00 12.6 14 Norte 29 Norte 0 -- -- 82
2019-06-11 18:00:00 13.7 21 Norte 32 Norte 0 -- -- 79
2019-06-11 17:00:00 13 19 Norte 30 Norte 0 -- -- 83
2019-06-11 16:00:00 12.8 19 Norte 31 Norte 0 -- -- 84
2019-06-11 15:00:00 13.5 17 Norte 32 Norte 0 -- -- 88
2019-06-11 14:00:00 13.3 21 Norte 32 Norte 0 -- -- 81
2019-06-11 13:00:00 12.3 20 Norte 33 Nordeste 0.2 -- -- 86
2019-06-11 12:00:00 12.3 21 Norte 31 Norte 0 -- -- 83
2019-06-11 11:00:00 11.7 17 Norte 28 Norte 0 -- -- 89
2019-06-11 10:00:00 11 9 Norte 15 Nordeste 0 -- -- 99
2019-06-11 09:00:00 9.5 0 Calma 30 Norte 0 -- -- 100
2019-06-11 08:00:00 8.6 2 Sur 13 Noroeste 0 -- -- 100
2019-06-11 07:00:00 8.7 0 Calma 11 Norte 0.2 -- -- 100
2019-06-11 06:00:00 9.1 4 Norte 18 Noroeste 2.2 -- -- 100
2019-06-11 05:00:00 9.3 5 Norte 27 Nordeste 0.2 -- -- 100
2019-06-11 04:00:00 9.8 9 Norte 19 Norte 1.4 -- -- 100
2019-06-11 03:00:00 9.9 7 Norte 21 Norte 0.4 -- -- 100
2019-06-11 02:00:00 10.2 8 Norte 15 Noroeste 0.4 -- -- 100
2019-06-11 01:00:00 10.3 4 Norte 7 Norte 0 -- -- 100
2019-06-11 00:00:00 10.3 2 Sudoeste 4 Sur 0 -- -- 99
2019-06-10 23:00:00 10.6 0 Calma 2 Este 0 -- -- 98
2019-06-10 22:00:00 11 0 Calma 3 Nordeste 0 -- -- 97
2019-06-10 21:00:00 11 2 Norte 13 Norte 0 -- -- 97
2019-06-10 20:00:00 11.3 10 Norte 19 Norte 0 -- -- 93
2019-06-10 19:00:00 11.9 14 Norte 18 Norte 0 -- -- 91
2019-06-10 18:00:00 11.7 10 Norte 22 Norte 0 -- -- 91
2019-06-10 17:00:00 12.4 17 Norte 32 Norte 0 -- -- 88
2019-06-10 16:00:00 15 20 Norte 31 Norte 0 -- -- 85
2019-06-10 15:00:00 14.5 18 Norte 23 Norte 0 -- -- 82
2019-06-10 14:00:00 14.7 15 Norte 22 Norte 0 -- -- 81
2019-06-10 13:00:00 14.2 11 Norte 21 Noroeste 0 -- -- 79
2019-06-10 12:00:00 14.8 6 Norte 12 Norte 0 -- -- 78
2019-06-10 11:00:00 13.3 4 Noroeste 12 Sudeste 0 -- -- 82
2019-06-10 10:00:00 12.4 5 Sudeste 8 Sudeste 0 -- -- 89
2019-06-10 09:00:00 10.2 5 Sur 8 Sur 0 -- -- 100
2019-06-10 08:00:00 9.7 0 Calma 7 Sur 0 -- -- 100
2019-06-10 07:00:00 9.4 3 Sudoeste 9 Sur 0 -- -- 100
2019-06-10 06:00:00 9.5 3 Sur 5 Sur 0 -- -- 100
2019-06-10 05:00:00 9.4 3 Sur 5 Sur 0 -- -- 100
2019-06-10 04:00:00 9.6 4 Sur 6 Sur 0 -- -- 100
2019-06-10 03:00:00 9.6 4 Sur 5 Sur 0 -- -- 100
2019-06-10 02:00:00 9.6 0 Calma 2 Nordeste 0 -- -- 100
2019-06-10 01:00:00 9.8 0 Calma 2 Sudeste 0 -- -- 100
2019-06-10 00:00:00 10.1 0 Calma 4 Nordeste 0 -- -- 100
2019-06-09 23:00:00 10.4 4 Nordeste 8 Norte 0 -- -- 100
2019-06-09 22:00:00 10.9 5 Norte 14 Norte 0 -- -- 98
2019-06-09 21:00:00 11.8 10 Norte 16 Norte 0 -- -- 95
2019-06-09 20:00:00 11.9 8 Norte 17 Norte 0 -- -- 97
2019-06-09 19:00:00 11.8 13 Norte 18 Norte 0 -- -- 100
2019-06-09 18:00:00 11.2 14 Norte 19 Norte 0 -- -- 100
2019-06-09 17:00:00 11.1 14 Norte 21 Norte 0.2 -- -- 100
2019-06-09 16:00:00 11 12 Norte 18 Norte 0 -- -- 100
2019-06-09 15:00:00 11 12 Norte 16 Norte 0.2 -- -- 100
2019-06-09 14:00:00 10.4 11 Norte 14 Norte 1 -- -- 100
2019-06-09 13:00:00 9.8 5 Norte 19 Norte 0.2 -- -- 100
2019-06-09 12:00:00 9.9 15 Norte 23 Norte 0.2 -- -- 100
2019-06-09 11:00:00 10.1 18 Norte 30 Nordeste 0 -- -- 100
2019-06-09 10:00:00 11.6 3 Noroeste 9 Oeste 0 -- -- 98
2019-06-09 09:00:00 11.4 6 Sur 8 Sur 0 -- -- 100
2019-06-09 08:00:00 10.8 0 Calma 3 Este 0 -- -- 100
2019-06-09 07:00:00 10.5 3 Sur 4 Sur 0 -- -- 100
2019-06-09 06:00:00 10.5 3 Sur 5 Sur 0 -- -- 100
2019-06-09 05:00:00 10.7 4 Sur 5 Sur 0 -- -- 100
2019-06-09 04:00:00 10.8 0 Calma 3 Nordeste 0 -- -- 100
2019-06-09 03:00:00 10.8 3 Sur 5 Sur 0 -- -- 100
2019-06-09 02:00:00 10.9 3 Sur 6 Norte 0 -- -- 100
2019-06-09 01:00:00 10.9 4 Norte 7 Norte 0 -- -- 100
2019-06-09 00:00:00 11 4 Norte 12 Norte 0 -- -- 99
2019-06-08 23:00:00 11.2 10 Norte 15 Norte 0 -- -- 98
2019-06-08 22:00:00 11.2 11 Norte 19 Norte 0 -- -- 96
2019-06-08 21:00:00 11.5 14 Norte 23 Noroeste 0 -- -- 93
2019-06-08 20:00:00 11.7 17 Norte 26 Norte 0 -- -- 91
2019-06-08 19:00:00 12.1 17 Norte 29 Norte 0 -- -- 87
2019-06-08 18:00:00 12.1 17 Norte 28 Norte 0 -- -- 85
2019-06-08 17:00:00 13.9 21 Norte 36 Norte 0 -- -- 78
2019-06-08 16:00:00 14.4 22 Norte 31 Norte 0 -- -- 80
2019-06-08 15:00:00 14.2 23 Norte 30 Norte 0 -- -- 80
2019-06-08 14:00:00 14.3 21 Norte 26 Norte 0 -- -- 79
2019-06-08 13:00:00 13.8 13 Norte 18 Norte 0 -- -- 79
2019-06-08 12:00:00 12.8 10 Norte 15 Norte 0 -- -- 76
2019-06-08 11:00:00 12 6 Norte 9 Norte 0 -- -- 85
2019-06-08 10:00:00 10.9 5 Sur 8 Sur 0 -- -- 88
2019-06-08 09:00:00 9.5 4 Sur 10 Sur 0 -- -- 91
2019-06-08 08:00:00 7.5 6 Sur 12 Sur 0 -- -- 96
2019-06-08 07:00:00 6.5 6 Sur 10 Sur 0 -- -- 98
2019-06-08 06:00:00 6.5 4 Sur 6 Sur 0 -- -- 97
2019-06-08 05:00:00 6.6 2 Sur 10 Sur 0 -- -- 97
2019-06-08 04:00:00 6.7 3 Sur 9 Sur 0 -- -- 95
2019-06-08 03:00:00 7.2 3 Sudoeste 13 Sur 0 -- -- 92
2019-06-08 02:00:00 8 6 Sudoeste 14 Sur 0 -- -- 92
2019-06-08 01:00:00 8.9 5 Sudoeste 12 Sur 0 -- -- 90
2019-06-08 00:00:00 9.2 5 Sur 9 Sur 0 -- -- 92
2019-06-07 23:00:00 10.2 3 Sudoeste 7 Sur 0 -- -- 86
2019-06-07 22:00:00 11.5 5 Sudoeste 23 Sur 0 -- -- 79
2019-06-07 21:00:00 11.8 13 Sur 28 Sur 0 -- -- 77
2019-06-07 20:00:00 12.4 17 Sur 32 Sur 0 -- -- 76
2019-06-07 19:00:00 14 15 Sur 33 Sur 0 -- -- 72
2019-06-07 18:00:00 13.8 19 Sur 31 Sur 0 -- -- 71
2019-06-07 17:00:00 14.3 21 Sur 49 Sur 0 -- -- 71
2019-06-07 16:00:00 14.6 24 Sur 57 Sur 0 -- -- 69
2019-06-07 15:00:00 14.3 19 Sur 32 Sur 0.4 -- -- 73
2019-06-07 14:00:00 15.2 18 Sur 41 Sur 0 -- -- 68
2019-06-07 13:00:00 13.3 16 Sur 45 Sur 0.2 -- -- 80
2019-06-07 12:00:00 11.4 22 Sur 38 Sur 0.2 -- -- 84
2019-06-07 11:00:00 11.2 24 Sur 42 Sur 0 -- -- 83
2019-06-07 10:00:00 10.5 23 Sur 44 Sur 0 -- -- 87
2019-06-07 09:00:00 9.3 23 Sur 44 Sur 0 -- -- 91
2019-06-07 08:00:00 8.8 19 Sur 37 Sur 0 -- -- 94
2019-06-07 07:00:00 8 20 Sur 44 Sudoeste 0.8 -- -- 97
2019-06-07 06:00:00 8.3 25 Sur 44 Sur 0.2 -- -- 96
2019-06-07 05:00:00 8.3 21 Sur 51 Sur 0.6 -- -- 94
2019-06-07 04:00:00 7.9 23 Sur 56 Sudoeste 0.8 -- -- 97
2019-06-07 03:00:00 8 30 Sur 57 Sur 0.2 -- -- 93
2019-06-07 02:00:00 8.2 28 Sur 59 Sur 0 -- -- 90
2019-06-07 01:00:00 8.2 36 Sur 63 Sur 1.2 -- -- 92
2019-06-07 00:00:00 9.6 25 Sur 67 Sur 0 -- -- 87
2019-06-06 23:00:00 10.4 42 Sur 78 Sur 0 -- -- 80
2019-06-06 22:00:00 10.9 43 Sur 71 Sur 0 -- -- 83
2019-06-06 21:00:00 12.1 43 Sur 76 Sur 0 -- -- 80
2019-06-06 20:00:00 13.1 51 Sur 81 Sur 0 -- -- 79
2019-06-06 19:00:00 14.4 46 Sur 88 Sur 0.2 -- -- 76
2019-06-06 18:00:00 13.8 44 Sur 65 Sur 0.6 -- -- 87
2019-06-06 17:00:00 13.7 43 Sur 70 Sur 1.6 -- -- 85
2019-06-06 16:00:00 12.2 21 Sur 39 Sur 1.8 -- -- 91
2019-06-06 15:00:00 14.6 16 Sur 35 Sudoeste 0 -- -- 72
2019-06-06 14:00:00 14.1 15 Sur 35 Sur 0 -- -- 70
2019-06-06 13:00:00 12 6 Norte 11 Norte 0 -- -- 87
2019-06-06 12:00:00 11.6 4 Norte 8 Nordeste 0 -- -- 84
2019-06-06 11:00:00 10.8 7 Norte 18 Sur 0 -- -- 87
2019-06-06 10:00:00 11.3 8 Sudoeste 33 Sur 0 -- -- 75
2019-06-06 09:00:00 10.7 10 Sur 29 Sur 0 -- -- 80
2019-06-06 08:00:00 9.7 19 Sur 33 Sur 0 -- -- 83
2019-06-06 07:00:00 9.2 13 Sur 24 Sudoeste 0 -- -- 88
2019-06-06 06:00:00 8.8 9 Sur 25 Sur 0 -- -- 90
2019-06-06 05:00:00 8.9 17 Sur 32 Sur 0 -- -- 90
2019-06-06 04:00:00 8.2 9 Sur 26 Sur 0 -- -- 96
2019-06-06 03:00:00 7.4 5 Sudoeste 16 Sudoeste 0 -- -- 97
2019-06-06 02:00:00 8 8 Sur 18 Sur 0 -- -- 98
2019-06-06 01:00:00 8 6 Sudoeste 13 Sudoeste 0 -- -- 97
2019-06-06 00:00:00 8.7 3 Sudoeste 19 Sudeste 0.2 -- -- 96
2019-06-05 23:00:00 9.4 7 Sur 16 Sur 0 -- -- 91
2019-06-05 22:00:00 9.9 10 Sur 30 Sur 0 -- -- 87
2019-06-05 21:00:00 10.4 13 Sur 36 Sur 0 -- -- 88
2019-06-05 20:00:00 12.2 9 Sur 21 Sur 0 -- -- 76
2019-06-05 19:00:00 11.4 15 Sur 32 Sur 0 -- -- 80
2019-06-05 18:00:00 13.4 8 Norte 24 Norte 0 -- -- 84
2019-06-05 17:00:00 13.5 16 Norte 24 Norte 0 -- -- 84
2019-06-05 16:00:00 12.4 7 Noroeste 38 Sudoeste 1.4 -- -- 94
2019-06-05 15:00:00 13 18 Sur 28 Sur 0 -- -- 86
2019-06-05 14:00:00 12.3 10 Sur 35 Nordeste 5.2 -- -- 87
2019-06-05 13:00:00 11.1 8 Nordeste 31 Sur 3.8 -- -- 83
2019-06-05 12:00:00 12.1 21 Sur 30 Sur 0 -- -- 85
2019-06-05 11:00:00 11.7 13 Sur 20 Sur 2.6 -- -- 94
2019-06-05 10:00:00 11.5 14 Sur 21 Sur 0 -- -- 86
2019-06-05 09:00:00 10.4 10 Sur 15 Sur 0 -- -- 93
2019-06-05 08:00:00 10.1 6 Sur 18 Sur 0 -- -- 92
2019-06-05 07:00:00 9.7 9 Sur 23 Sur 0.2 -- -- 93
2019-06-05 06:00:00 10.1 10 Sur 19 Sur 0 -- -- 93
2019-06-05 05:00:00 10 9 Sur 15 Sur 0 -- -- 95
2019-06-05 04:00:00 10 5 Sur 12 Sur 0 -- -- 96
2019-06-05 03:00:00 9.9 5 Sur 12 Sur 0 -- -- 96
2019-06-05 02:00:00 10.1 4 Sur 10 Sur 0 -- -- 96
2019-06-05 01:00:00 10.4 4 Sur 8 Sur 0 -- -- 95
2019-06-05 00:00:00 10.9 6 Sur 12 Sur 0 -- -- 95
2019-06-04 23:00:00 11 7 Sur 12 Sur 0 -- -- 95
2019-06-04 22:00:00 11.7 4 Sur 16 Sur 0.2 -- -- 92
2019-06-04 21:00:00 12.6 5 Sur 22 Sudeste 0 -- -- 87
2019-06-04 20:00:00 13.9 12 Sur 21 Sur 0 -- -- 76
2019-06-04 19:00:00 13.9 7 Sur 24 Sur 0.2 -- -- 77
2019-06-04 18:00:00 14.2 9 Norte 24 Norte 0 -- -- 85
2019-06-04 17:00:00 17.2 16 Norte 24 Norte 0 -- -- 77
2019-06-04 16:00:00 17.9 8 Sudeste 31 Sur 0 -- -- 62
2019-06-04 15:00:00 18.4 10 Sur 33 Sur 0 -- -- 59
2019-06-04 14:00:00 18.1 17 Sur 38 Sur 0 -- -- 62
2019-06-04 13:00:00 16.3 19 Sur 34 Sur 0 -- -- 71
2019-06-04 12:00:00 13.9 9 Sur 24 Sur 0 -- -- 90
2019-06-04 11:00:00 13.6 10 Sur 38 Sur 1.2 -- -- 96
2019-06-04 10:00:00 14.8 22 Sur 45 Sur 0 -- -- 86
2019-06-04 09:00:00 15.4 27 Sur 57 Sur 0 -- -- 78
2019-06-04 08:00:00 15.5 41 Sur 73 Sudoeste 0 -- -- 75
2019-06-04 07:00:00 15 38 Sur 69 Sur 0 -- -- 76
2019-06-04 06:00:00 14.8 32 Sur 73 Sur 0 -- -- 76
2019-06-04 05:00:00 14.1 40 Sur 73 Sur 0 -- -- 82
2019-06-04 04:00:00 13.2 21 Sur 44 Sur 0 -- -- 87
2019-06-04 03:00:00 12.9 17 Sur 33 Sur 0 -- -- 97
2019-06-04 02:00:00 13.2 11 Sudoeste 26 Sur 0 -- -- 100
2019-06-04 01:00:00 14 4 Sur 8 Sudoeste 0 -- -- 100
2019-06-04 00:00:00 13.9 4 Sur 9 Sur 0 -- -- 100
2019-06-03 23:00:00 14 3 Sur 8 Sur 0 -- -- 100
2019-06-03 22:00:00 14 4 Sur 6 Sur 0.2 -- -- 100
2019-06-03 21:00:00 14 3 Norte 10 Norte 0 -- -- 100
2019-06-03 20:00:00 14.1 9 Norte 15 Norte 0 -- -- 100
2019-06-03 19:00:00 14.1 9 Norte 15 Norte 0.2 -- -- 100
2019-06-03 18:00:00 14.4 10 Norte 17 Norte 0 -- -- 100
2019-06-03 17:00:00 14.5 13 Norte 17 Norte 0 -- -- 100
2019-06-03 16:00:00 15.2 12 Norte 17 Norte 0 -- -- 100
2019-06-03 15:00:00 15.9 10 Norte 13 Norte 0 -- -- 100
2019-06-03 14:00:00 15.3 7 Norte 12 Norte 0.4 -- -- 100
2019-06-03 13:00:00 15.2 9 Norte 11 Norte 0.2 -- -- 100
2019-06-03 12:00:00 14.9 9 Norte 11 Norte 0.4 -- -- 100
2019-06-03 11:00:00 14.5 9 Norte 17 Norte 0.8 -- -- 100
2019-06-03 10:00:00 14.5 9 Norte 14 Norte 0 -- -- 100
2019-06-03 09:00:00 14.8 8 Norte 10 Norte 0.2 -- -- 100
2019-06-03 08:00:00 14.7 0 Calma 5 Norte 0 -- -- 100
2019-06-03 07:00:00 14.6 3 Norte 7 Norte 0 -- -- 100
2019-06-03 06:00:00 14.8 4 Norte 8 Sudoeste 0 -- -- 100
2019-06-03 05:00:00 14.9 5 Sur 7 Sur 0 -- -- 100
2019-06-03 04:00:00 14.9 4 Norte 9 Norte 0 -- -- 100
2019-06-03 03:00:00 15 5 Norte 8 Norte 0 -- -- 100
2019-06-03 02:00:00 15.1 7 Norte 10 Norte 0 -- -- 100
2019-06-03 01:00:00 15.2 8 Norte 15 Norte 0 -- -- 100
2019-06-03 00:00:00 15.4 10 Norte 19 Norte 0 -- -- 99
2019-06-02 23:00:00 15.8 13 Norte 17 Noroeste 0 -- -- 97
2019-06-02 22:00:00 16 8 Norte 14 Noroeste 0 -- -- 95
2019-06-02 21:00:00 16.6 6 Norte 16 Norte 0 -- -- 92
2019-06-02 20:00:00 17.3 12 Norte 19 Norte 0 -- -- 88
2019-06-02 19:00:00 19.5 15 Norte 23 Norte 0 -- -- 77
2019-06-02 18:00:00 20.2 17 Norte 22 Norte 0 -- -- 76
2019-06-02 17:00:00 20.9 16 Norte 19 Norte 0 -- -- 75
2019-06-02 16:00:00 21.5 14 Norte 17 Norte 0 -- -- 72
2019-06-02 15:00:00 22.1 9 Norte 17 Norte 0 -- -- 80
2019-06-02 14:00:00 21.9 8 Norte 23 Sur 0 -- -- 79
2019-06-02 13:00:00 23.8 15 Sur 27 Sur 0 -- -- 49
2019-06-02 12:00:00 23.7 18 Sur 33 Sur 0 -- -- 45
2019-06-02 11:00:00 22.2 16 Sur 29 Sur 0 -- -- 46
2019-06-02 10:00:00 20.9 14 Sur 22 Sur 0 -- -- 55
2019-06-02 09:00:00 17.8 9 Sur 18 Sur 0 -- -- 65
2019-06-02 08:00:00 15.7 8 Sur 15 Sur 0 -- -- 66
2019-06-02 07:00:00 16.3 8 Sur 16 Sur 0 -- -- 61
2019-06-02 06:00:00 15.3 8 Sur 15 Sur 0 -- -- 66
2019-06-02 05:00:00 15.7 11 Sur 18 Sur 0 -- -- 70
2019-06-02 04:00:00 16.8 4 Sudoeste 12 Sudoeste 0 -- -- 65
2019-06-02 03:00:00 17.5 7 Sudoeste 13 Sur 0 -- -- 67
2019-06-02 02:00:00 18.1 8 Sudoeste 14 Sudoeste 0 -- -- 66
2019-06-02 01:00:00 17.6 7 Sur 14 Sur 0 -- -- 68
2019-06-02 00:00:00 17.7 9 Sur 14 Sur 0 -- -- 66
2019-06-01 23:00:00 17.1 5 Sur 7 Norte 0 -- -- 59
2019-06-01 22:00:00 18.3 5 Norte 7 Norte 0 -- -- 56
2019-06-01 21:00:00 20.2 5 Norte 16 Noroeste 0 -- -- 50
2019-06-01 20:00:00 22.7 14 Norte 22 Norte 0 -- -- 47
2019-06-01 19:00:00 23.3 17 Noroeste 22 Noroeste 0 -- -- 52
2019-06-01 18:00:00 23.1 17 Norte 28 Noroeste 0 -- -- 59
2019-06-01 17:00:00 23.1 25 Norte 30 Norte 0 -- -- 59
2019-06-01 16:00:00 25 19 Norte 25 Norte 0 -- -- 53
2019-06-01 15:00:00 24.9 18 Norte 23 Norte 0 -- -- 54
2019-06-01 14:00:00 26.1 13 Norte 29 Sur 0 -- -- 58
2019-06-01 13:00:00 28.3 15 Sur 22 Sur 0 -- -- 45
2019-06-01 12:00:00 27.3 7 Sur 9 Sudeste 0 -- -- 53
2019-06-01 11:00:00 24.8 8 Sur 14 Sur 0 -- -- 56
2019-06-01 10:00:00 21.8 10 Sur 14 Sur 0 -- -- 58
2019-06-01 09:00:00 19.2 8 Sur 11 Sudoeste 0 -- -- 58
2019-06-01 08:00:00 18.1 5 Sudoeste 14 Sur 0 -- -- 54
2019-06-01 07:00:00 17.7 8 Sur 11 Sudoeste 0 -- -- 54
2019-06-01 06:00:00 18.4 6 Sur 13 Sur 0 -- -- 51
2019-06-01 05:00:00 18.5 9 Sur 14 Sur 0 -- -- 53
2019-06-01 04:00:00 18.6 9 Sur 13 Sur 0 -- -- 52
2019-06-01 03:00:00 19.5 8 Sur 10 Sur 0 -- -- 50
2019-06-01 02:00:00 19.7 6 Sur 8 Sur 0 -- -- 49
2019-06-01 01:00:00 19.9 6 Sur 6 Sur 0 -- -- 49
2019-06-01 00:00:00 20.8 2 Sur 6 Sur 0 -- -- 48
2019-05-31 23:00:00 21.4 5 Sur 5 Sur 0 -- -- 49
2019-05-31 22:00:00 22.3 0 Calma 6 Norte 0 -- -- 48
2019-05-31 21:00:00 23.6 4 Norte 13 Norte 0 -- -- 48
2019-05-31 20:00:00 26 10 Norte 19 Norte 0 -- -- 49
2019-05-31 19:00:00 26.8 14 Norte 18 Norte 0 -- -- 57
2019-05-31 18:00:00 28.7 14 Norte 18 Norte 0 -- -- 54
2019-05-31 17:00:00 29.4 13 Norte 20 Norte 0 -- -- 54
2019-05-31 16:00:00 29.1 16 Norte 20 Norte 0 -- -- 54
2019-05-31 15:00:00 29.1 12 Norte 17 Norte 0 -- -- 58
2019-05-31 14:00:00 28.9 9 Norte 12 Norte 0 -- -- 59
2019-05-31 13:00:00 27.6 8 Norte 12 Norte 0 -- -- 59
2019-05-31 12:00:00 26.3 8 Norte 10 Norte 0 -- -- 58
2019-05-31 11:00:00 25 2 Sur 7 Sur 0 -- -- 66
2019-05-31 10:00:00 22.2 6 Sur 14 Sur 0 -- -- 67
2019-05-31 09:00:00 19 10 Sur 15 Sur 0 -- -- 71
2019-05-31 08:00:00 16.2 8 Sur 11 Sur 0 -- -- 76
2019-05-31 07:00:00 15.3 8 Sur 10 Sudeste 0 -- -- 78
2019-05-31 06:00:00 14.8 6 Sur 13 Sur 0 -- -- 83
2019-05-31 05:00:00 14.6 8 Sur 14 Sur 0 -- -- 86
2019-05-31 04:00:00 13.8 3 Sur 14 Sur 0 -- -- 90
2019-05-31 03:00:00 13.8 5 Sur 8 Sur 0 -- -- 93
2019-05-31 02:00:00 13.9 4 Sur 7 Sur 0 -- -- 94
2019-05-31 01:00:00 14.1 4 Sur 5 Sur 0 -- -- 95
2019-05-31 00:00:00 14.6 2 Oeste 8 Sur 0 -- -- 96
2019-05-30 23:00:00 14.8 7 Sur 9 Sur 0 -- -- 96
2019-05-30 22:00:00 15.7 0 Calma 6 Sur 0 -- -- 92
2019-05-30 21:00:00 17 2 Norte 14 Norte 0 -- -- 87
2019-05-30 20:00:00 20.3 11 Norte 15 Norte 0 -- -- 79
2019-05-30 19:00:00 21.9 13 Norte 16 Norte 0 -- -- 77
2019-05-30 18:00:00 23.5 13 Norte 19 Norte 0 -- -- 74
2019-05-30 17:00:00 23.8 16 Norte 18 Norte 0 -- -- 73
2019-05-30 16:00:00 23.8 14 Norte 18 Norte 0 -- -- 67
2019-05-30 15:00:00 22.2 15 Norte 20 Norte 0 -- -- 73
2019-05-30 14:00:00 22.3 15 Norte 19 Norte 0 -- -- 74
2019-05-30 13:00:00 22.2 10 Norte 15 Norte 0 -- -- 72
2019-05-30 12:00:00 21 8 Norte 11 Norte 0 -- -- 77
2019-05-30 11:00:00 19.2 2 Norte 8 Norte 0 -- -- 81
2019-05-30 10:00:00 17.2 4 Norte 6 Norte 0 -- -- 84
2019-05-30 09:00:00 14.9 0 Calma 8 Sudeste 0 -- -- 91
2019-05-30 08:00:00 12.1 4 Sur 14 Sur 0 -- -- 96
2019-05-30 07:00:00 11 7 Sur 13 Sur 0 -- -- 100
2019-05-30 06:00:00 11 7 Sur 15 Sur 0 -- -- 100
2019-05-30 05:00:00 10.1 9 Sur 12 Sur 0 -- -- 100
2019-05-30 04:00:00 10.1 4 Sur 8 Sur 0 -- -- 100
2019-05-30 03:00:00 10.1 4 Sur 5 Sur 0 -- -- 100
2019-05-30 02:00:00 10.5 0 Calma 3 Sur 0 -- -- 100
2019-05-30 01:00:00 10.7 2 Sur 9 Sur 0 -- -- 100
2019-05-30 00:00:00 11 5 Sur 6 Sur 0 -- -- 100
2019-05-29 23:00:00 11.5 2 Norte 9 Noroeste 0 -- -- 98
2019-05-29 22:00:00 12.5 6 Norte 9 Norte 0 -- -- 93
2019-05-29 21:00:00 14.2 8 Norte 18 Norte 0 -- -- 88
2019-05-29 20:00:00 16.5 14 Norte 22 Norte 0 -- -- 85
2019-05-29 19:00:00 17.2 14 Norte 23 Norte 0 -- -- 84
2019-05-29 18:00:00 16.6 20 Norte 32 Norte 0 -- -- 85
2019-05-29 17:00:00 18 18 Norte 24 Norte 0 -- -- 81
2019-05-29 16:00:00 17 19 Norte 30 Norte 0 -- -- 86
2019-05-29 15:00:00 17.3 25 Norte 32 Norte 0 -- -- 84
2019-05-29 14:00:00 17.4 21 Norte 27 Norte 0 -- -- 84
2019-05-29 13:00:00 17.1 20 Norte 26 Norte 0 -- -- 87
2019-05-29 12:00:00 15.6 15 Norte 24 Norte 0 -- -- 88
2019-05-29 11:00:00 14.8 12 Norte 17 Norte 0 -- -- 88
2019-05-29 10:00:00 13.3 9 Norte 12 Norte 0 -- -- 90
2019-05-29 09:00:00 11.2 2 Nordeste 6 Sur 0 -- -- 97
2019-05-29 08:00:00 8.6 2 Sur 6 Sur 0 -- -- 99
2019-05-29 07:00:00 8.3 4 Sur 7 Sur 0 -- -- 100
2019-05-29 06:00:00 9.3 4 Sur 6 Sur 0 -- -- 100
2019-05-29 05:00:00 8.8 4 Sur 9 Sur 0 -- -- 100
2019-05-29 04:00:00 8.5 3 Sur 5 Sur 0 -- -- 100
2019-05-29 03:00:00 8.5 0 Calma 4 Nordeste 0 -- -- 100
2019-05-29 02:00:00 9 0 Calma 5 Norte 0 -- -- 100
2019-05-29 01:00:00 9.3 4 Norte 8 Noroeste 0 -- -- 100
2019-05-29 00:00:00 9.7 5 Norte 8 Norte 0 -- -- 99
2019-05-28 23:00:00 10.2 4 Norte 15 Norte 0 -- -- 98
2019-05-28 22:00:00 11.3 13 Norte 26 Norte 0 -- -- 96
2019-05-28 21:00:00 12.2 19 Norte 30 Norte 0 -- -- 92
2019-05-28 20:00:00 14.1 21 Norte 32 Norte 0 -- -- 85
2019-05-28 19:00:00 14.3 24 Norte 32 Norte 0 -- -- 84
2019-05-28 18:00:00 15 21 Norte 33 Noroeste 0 -- -- 76
2019-05-28 17:00:00 15.1 22 Norte 30 Norte 0 -- -- 79
2019-05-28 16:00:00 14.9 23 Norte 31 Norte 0 -- -- 80
2019-05-28 15:00:00 14.8 19 Norte 33 Norte 0 -- -- 80
2019-05-28 14:00:00 14.6 19 Norte 28 Norte 0 -- -- 84
2019-05-28 13:00:00 14.9 21 Norte 29 Norte 0 -- -- 84
2019-05-28 12:00:00 13.8 16 Norte 24 Norte 0 -- -- 90
2019-05-28 11:00:00 12.5 10 Norte 16 Norte 0 -- -- 97
2019-05-28 10:00:00 11.8 9 Norte 12 Norte 0 -- -- 99
2019-05-28 09:00:00 11 5 Norte 6 Noroeste 0 -- -- 100
2019-05-28 08:00:00 10.3 4 Norte 6 Norte 0 -- -- 100
2019-05-28 07:00:00 9.5 4 Norte 6 Norte 0 -- -- 100
2019-05-28 06:00:00 9.5 3 Norte 4 Norte 0 -- -- 100
2019-05-28 05:00:00 10.1 3 Norte 8 Norte 0 -- -- 100
2019-05-28 04:00:00 10.1 2 Nordeste 6 Este 0 -- -- 100
2019-05-28 03:00:00 9.6 0 Calma 5 Nordeste 0 -- -- 100
2019-05-28 02:00:00 9.7 3 Norte 5 Noroeste 0 -- -- 100
2019-05-28 01:00:00 10 4 Norte 16 Norte 0 -- -- 100
2019-05-28 00:00:00 10.8 10 Norte 14 Norte 0 -- -- 100
2019-05-27 23:00:00 10.8 9 Norte 17 Norte 0 -- -- 99
2019-05-27 22:00:00 11.2 13 Norte 17 Norte 0 -- -- 97
2019-05-27 21:00:00 11.7 12 Norte 23 Norte 0 -- -- 96
2019-05-27 20:00:00 12.1 17 Norte 27 Norte 0 -- -- 96
2019-05-27 19:00:00 12.7 18 Norte 25 Norte 0 -- -- 95
2019-05-27 18:00:00 13.7 20 Norte 30 Norte 0 -- -- 96
2019-05-27 17:00:00 13.4 20 Norte 26 Norte 0 -- -- 99
2019-05-27 16:00:00 13.5 16 Norte 27 Norte 0 -- -- 100
2019-05-27 15:00:00 12.5 21 Norte 29 Norte 0.2 -- -- 100
2019-05-27 14:00:00 13.4 14 Norte 22 Norte 0 -- -- 100
2019-05-27 13:00:00 12.9 10 Norte 20 Norte 0 -- -- 100
2019-05-27 12:00:00 12.4 15 Norte 26 Norte 0.4 -- -- 100
2019-05-27 11:00:00 12.8 17 Norte 26 Norte 0.8 -- -- 100
2019-05-27 10:00:00 12.7 2 Sur 8 Sur 0.4 -- -- 100
2019-05-27 09:00:00 12.1 5 Sur 10 Sur 0.6 -- -- 100
2019-05-27 08:00:00 11.4 9 Sur 15 Sur 0.2 -- -- 100
2019-05-27 07:00:00 11.5 6 Sur 10 Sur 0 -- -- 100
2019-05-27 06:00:00 11.3 6 Sur 15 Sur 0 -- -- 100
2019-05-27 05:00:00 11.5 8 Sur 17 Sur 0 -- -- 98
2019-05-27 04:00:00 11.4 9 Sur 18 Sur 0 -- -- 98
2019-05-27 03:00:00 11.4 7 Sur 13 Sur 0 -- -- 98
2019-05-27 02:00:00 11.5 6 Sur 10 Sur 0 -- -- 98
2019-05-27 01:00:00 11.7 2 Norte 6 Sur 0 -- -- 97
2019-05-27 00:00:00 11.7 2 Nordeste 8 Norte 0 -- -- 97
2019-05-26 23:00:00 11.8 6 Norte 8 Norte 0 -- -- 97
2019-05-26 22:00:00 12 5 Norte 18 Norte 0 -- -- 95
2019-05-26 21:00:00 12.3 15 Norte 22 Norte 0 -- -- 94
2019-05-26 20:00:00 13.8 15 Norte 23 Norte 0 -- -- 90
2019-05-26 19:00:00 14.9 17 Norte 31 Norte 0 -- -- 89
2019-05-26 18:00:00 15.6 19 Norte 27 Norte 0 -- -- 86
2019-05-26 17:00:00 16 21 Norte 29 Norte 0 -- -- 83
2019-05-26 16:00:00 16.8 12 Norte 23 Norte 0 -- -- 84
2019-05-26 15:00:00 16.4 13 Norte 18 Norte 0 -- -- 84
2019-05-26 14:00:00 14.2 12 Norte 15 Norte 0 -- -- 89
2019-05-26 13:00:00 13.8 8 Norte 15 Norte 0 -- -- 89
2019-05-26 12:00:00 13.2 8 Norte 12 Norte 0 -- -- 90
2019-05-26 11:00:00 12.9 6 Norte 11 Norte 0 -- -- 92
2019-05-26 10:00:00 12.4 2 Noroeste 6 Norte 0 -- -- 94
2019-05-26 09:00:00 11.6 3 Sudoeste 9 Norte 0 -- -- 97
2019-05-26 08:00:00 10.7 4 Norte 6 Norte 0 -- -- 100
2019-05-26 07:00:00 10.1 2 Norte 5 Nordeste 0 -- -- 100
2019-05-26 06:00:00 9.5 2 Sur -- -- 0 -- -- 100
2019-05-26 05:00:00 8.9 0 Calma 4 Sur 0 -- -- 100
2019-05-26 04:00:00 9.1 3 Sur 4 Sur 0 -- -- 100
2019-05-26 03:00:00 9 0 Calma 4 Sur 0 -- -- 100
2019-05-26 02:00:00 8.9 0 Calma 5 Nordeste 0 -- -- 100
2019-05-26 01:00:00 9.1 0 Calma 3 Norte 0 -- -- 100
2019-05-26 00:00:00 9.7 2 Nordeste 6 Noroeste 0 -- -- 100
2019-05-25 23:00:00 10.5 5 Norte 11 Norte 0 -- -- 99
2019-05-25 22:00:00 11.8 11 Norte 21 Norte 0 -- -- 97
2019-05-25 21:00:00 12.4 15 Norte 28 Norte 0 -- -- 93
2019-05-25 20:00:00 13.6 22 Norte 33 Norte 0 -- -- 89
2019-05-25 19:00:00 14.5 24 Norte 32 Norte 0 -- -- 86
2019-05-25 18:00:00 15.7 23 Norte 33 Norte 0 -- -- 84
2019-05-25 17:00:00 15.6 24 Norte 33 Norte 0 -- -- 83
2019-05-25 16:00:00 16.1 25 Norte 36 Norte 0 -- -- 85
2019-05-25 15:00:00 15.8 25 Norte 38 Norte 0 -- -- 84
2019-05-25 14:00:00 14.9 23 Norte 30 Norte 0 -- -- 82
2019-05-25 13:00:00 14.1 19 Norte 27 Norte 0 -- -- 88
2019-05-25 12:00:00 13.6 17 Norte 22 Norte 0 -- -- 91
2019-05-25 11:00:00 12.6 17 Norte 21 Norte 0 -- -- 98
2019-05-25 10:00:00 12.1 11 Norte 16 Norte 0 -- -- 99
2019-05-25 09:00:00 11.3 10 Norte 15 Norte 0 -- -- 100
2019-05-25 08:00:00 10.9 12 Norte 17 Norte 0 -- -- 100
2019-05-25 07:00:00 10.6 3 Noroeste 9 Norte 0.2 -- -- 100
2019-05-25 06:00:00 10.7 6 Norte 8 Norte 0 -- -- 100
2019-05-25 05:00:00 10.6 2 Nordeste 4 Noroeste 0 -- -- 100
2019-05-25 04:00:00 10.4 2 Norte 7 Nordeste 0 -- -- 100
2019-05-25 03:00:00 10.3 3 Norte 5 Norte 0 -- -- 100
2019-05-25 02:00:00 10.5 3 Norte 9 Norte 0 -- -- 100
2019-05-25 01:00:00 11.3 9 Norte 14 Norte 0 -- -- 100
2019-05-25 00:00:00 11.5 12 Norte 25 Norte 0 -- -- 100
2019-05-24 23:00:00 11.8 16 Norte 26 Norte 0 -- -- 100
2019-05-24 22:00:00 12 16 Norte 23 Norte 0 -- -- 100
2019-05-24 21:00:00 12.3 18 Norte 26 Norte 0 -- -- 100
2019-05-24 20:00:00 12.8 17 Norte 27 Norte 0 -- -- 98
2019-05-24 19:00:00 13.1 18 Norte 29 Norte 0 -- -- 95
2019-05-24 18:00:00 13.5 23 Norte 33 Norte 0 -- -- 92
2019-05-24 17:00:00 15.1 24 Norte 31 Norte 0 -- -- 89
2019-05-24 16:00:00 13.6 21 Norte 31 Norte 0 -- -- 97
2019-05-24 15:00:00 12.9 13 Norte 24 Nordeste 0 -- -- 97
2019-05-24 14:00:00 12.2 10 Norte 17 Norte 0.2 -- -- 99
2019-05-24 13:00:00 11.7 9 Norte 22 Norte 0.2 -- -- 98
2019-05-24 12:00:00 13 13 Norte 23 Norte 0 -- -- 85
2019-05-24 11:00:00 12.8 9 Norte 21 Norte 0 -- -- 88
2019-05-24 10:00:00 12.3 6 Noroeste 15 Norte 0 -- -- 89
2019-05-24 09:00:00 11.3 5 Sur 6 Sudoeste 0 -- -- 98
2019-05-24 08:00:00 10.5 3 Sur 4 Sur 0 -- -- 99
2019-05-24 07:00:00 10.3 2 Norte 4 Sur 0 -- -- 99
2019-05-24 06:00:00 10 3 Sur 5 Sur 0 -- -- 98
2019-05-24 05:00:00 10.6 2 Sur 4 Sur 0 -- -- 98
2019-05-24 04:00:00 10.7 0 Calma 5 Sur 0 -- -- 98
2019-05-24 03:00:00 10.7 0 Calma 3 Noroeste 0 -- -- 98
2019-05-24 02:00:00 10.6 3 Norte 7 Norte 0 -- -- 98
2019-05-24 01:00:00 10.8 5 Norte 13 Norte 0 -- -- 96
2019-05-24 00:00:00 10.8 6 Norte 12 Noroeste 0 -- -- 95
2019-05-23 23:00:00 10.8 5 Norte 15 Norte 0 -- -- 93
2019-05-23 22:00:00 11.8 12 Norte 21 Norte 0 -- -- 91
2019-05-23 21:00:00 12.9 14 Norte 28 Norte 0 -- -- 88
2019-05-23 20:00:00 14.5 22 Norte 30 Norte 0 -- -- 83
2019-05-23 19:00:00 15.5 19 Norte 28 Norte 0 -- -- 84
2019-05-23 18:00:00 15.3 19 Norte 29 Norte 0 -- -- 83
2019-05-23 17:00:00 17.5 19 Norte 27 Norte 0 -- -- 81
2019-05-23 16:00:00 17 15 Norte 25 Sur 0 -- -- 83
2019-05-23 15:00:00 19.1 13 Sur 31 Sudeste 0 -- -- 65
2019-05-23 14:00:00 17.1 19 Sur 26 Sur 0 -- -- 78
2019-05-23 13:00:00 14.7 12 Sur 26 Sur 0 -- -- 86
2019-05-23 12:00:00 15.2 14 Sur 27 Sur 0 -- -- 82
2019-05-23 11:00:00 15.5 16 Sur 23 Sur 0 -- -- 79
2019-05-23 10:00:00 14.6 15 Sur 25 Sur 0 -- -- 80
2019-05-23 09:00:00 12.9 12 Sur 20 Sur 0 -- -- 84
2019-05-23 08:00:00 12.9 13 Sur 20 Sur 0 -- -- 83
2019-05-23 07:00:00 12 10 Sur 19 Sur 0 -- -- 82
2019-05-23 06:00:00 11.8 6 Sur 15 Sudoeste 0 -- -- 82
2019-05-23 05:00:00 12.2 8 Sur 14 Sudoeste 0 -- -- 80
2019-05-23 04:00:00 12.5 11 Sur 18 Sur 0 -- -- 76
2019-05-23 03:00:00 12.4 6 Sur 10 Sur 0 -- -- 75
2019-05-23 02:00:00 12.6 6 Sur 9 Sudoeste 0 -- -- 74
2019-05-23 01:00:00 12.4 6 Sur 8 Sur 0 -- -- 74
2019-05-23 00:00:00 13.5 5 Sur 7 Sur 0 -- -- 69
2019-05-22 23:00:00 14 3 Sur 6 Sur 0 -- -- 67
2019-05-22 22:00:00 14.8 3 Sur 5 Norte 0 -- -- 66
2019-05-22 21:00:00 16.4 3 Norte 12 Norte 0 -- -- 61
2019-05-22 20:00:00 18.6 10 Noroeste 18 Norte 0 -- -- 55
2019-05-22 19:00:00 18.7 15 Norte 23 Norte 0 -- -- 62
2019-05-22 18:00:00 19.1 17 Norte 28 Norte 0 -- -- 65
2019-05-22 17:00:00 18.9 20 Norte 26 Norte 0 -- -- 64
2019-05-22 16:00:00 19.4 17 Norte 24 Norte 0 -- -- 71
2019-05-22 15:00:00 18.8 12 Norte 15 Norte 0 -- -- 81
2019-05-22 14:00:00 18.9 12 Norte 15 Norte 0 -- -- 81
2019-05-22 13:00:00 19.5 9 Norte 12 Norte 0 -- -- 82
2019-05-22 12:00:00 17.6 8 Norte 12 Norte 0 -- -- 84
2019-05-22 11:00:00 15.4 6 Norte 13 Sur 0 -- -- 89
2019-05-22 10:00:00 12.1 3 Sur 9 Sur 0 -- -- 99
2019-05-22 09:00:00 9.5 5 Sur 7 Sur 0 -- -- 100
2019-05-22 08:00:00 8.8 6 Sur 10 Sur 0 -- -- 100
2019-05-22 07:00:00 9.2 4 Sur 8 Sur 0 -- -- 100
2019-05-22 06:00:00 9.6 5 Sur 9 Sur 0 -- -- 100
2019-05-22 05:00:00 10 2 Sudoeste 9 Sur 0 -- -- 100
2019-05-22 04:00:00 10.5 5 Sur 10 Sur 0 -- -- 100
2019-05-22 03:00:00 10.8 3 Sur 12 Sur 0 -- -- 100
2019-05-22 02:00:00 10.9 7 Sur 12 Sur 0 -- -- 100
2019-05-22 01:00:00 11 2 Sudoeste 6 Oeste 0 -- -- 100
2019-05-22 00:00:00 10.9 3 Sur 5 Sur 0 -- -- 100